Time;durP1;ratioP1;P1;durP2;ratioP2;P2;SDS_P1;SDS_P2;PMS_P1;PMS_P2;Temp;Humidity;BMP_temperature;BMP_pressure;BME280_temperature;BME280_humidity;BME280_pressure;Samples;Min_cycle;Max_cycle;Signal;HPM_P1;HPM_P2
2022/02/06 00:21:21;;;;;;;27.85;14.00;;;25.20;61.20;;;;;;5077426;27;20784;-72
2022/02/06 00:23:51;;;;;;;25.20;14.55;;;25.40;61.90;;;;;;5066510;28;20104;-71
2022/02/06 00:26:38;;;;;;;21.95;14.25;;;25.40;61.80;;;;;;5065977;28;20021;-71
2022/02/06 00:31:47;;;;;;;28.75;17.10;;;25.40;61.40;;;;;;5065108;28;20028;-72
2022/02/06 00:39:35;;;;;;;18.00;13.98;;;25.50;61.20;;;;;;5040437;28;20058;-72
2022/02/06 00:42:02;;;;;;;22.85;12.77;;;25.50;61.20;;;;;;5055703;28;20025;-72
2022/02/06 00:44:28;;;;;;;23.67;11.05;;;25.50;61.20;;;;;;5065309;28;20032;-73
2022/02/06 00:46:58;;;;;;;20.00;10.25;;;25.50;61.20;;;;;;5066547;28;20024;-72
2022/02/06 00:49:28;;;;;;;14.35;9.23;;;25.50;61.30;;;;;;5064629;28;20036;-72
2022/02/06 00:52:16;;;;;;;25.83;9.50;;;25.50;61.20;;;;;;5066034;28;20021;-72
2022/02/06 00:54:43;;;;;;;16.90;8.00;;;25.50;61.20;;;;;;5065138;28;20823;-72
2022/02/06 00:57:09;;;;;;;13.80;8.63;;;25.50;61.30;;;;;;5065079;28;20078;-72
2022/02/06 00:59:36;;;;;;;14.98;8.52;;;25.50;61.40;;;;;;5066158;28;20044;-72
2022/02/06 01:02:03;;;;;;;18.48;9.00;;;25.40;61.20;;;;;;5065232;28;20115;-72
2022/02/06 01:04:34;;;;;;;14.13;8.68;;;25.50;61.40;;;;;;5066032;28;20033;-72
2022/02/06 01:07:02;;;;;;;16.98;8.85;;;25.50;61.30;;;;;;5064000;28;20387;-73
2022/02/06 01:09:28;;;;;;;20.65;7.97;;;25.50;61.30;;;;;;5065176;28;20510;-73
2022/02/06 01:11:55;;;;;;;19.25;8.95;;;25.40;61.30;;;;;;5063626;28;20107;-72
2022/02/06 01:14:39;;;;;;;20.45;9.63;;;25.40;61.20;;;;;;5064367;28;20016;-72
2022/02/06 01:22:25;;;;;;;20.08;9.88;;;25.30;61.40;;;;;;5051882;28;20035;-73
2022/02/06 01:25:10;;;;;;;16.35;8.98;;;25.40;61.50;;;;;;5051562;28;20025;-73
2022/02/06 01:27:45;;;;;;;15.07;8.07;;;25.40;61.60;;;;;;5047732;28;20028;-73
2022/02/06 01:30:22;;;;;;;17.15;8.63;;;25.40;61.60;;;;;;5048336;28;20048;-73
2022/02/06 01:32:54;;;;;;;17.85;7.57;;;25.40;61.60;;;;;;5042146;28;20036;-73
2022/02/06 01:35:29;;;;;;;15.00;6.88;;;25.30;61.60;;;;;;5051628;28;20116;-73
2022/02/06 01:38:11;;;;;;;17.60;7.03;;;25.30;61.50;;;;;;5052289;28;20036;-73
2022/02/06 01:40:53;;;;;;;13.45;7.18;;;25.30;61.60;;;;;;5048697;28;20032;-73
2022/02/06 01:43:24;;;;;;;17.92;6.22;;;25.30;61.60;;;;;;5052226;28;20468;-73
2022/02/06 02:04:54;;;;;;;11.15;6.43;;;25.30;62.40;;;;;;5047826;28;20411;-72
2022/02/06 02:10:24;;;;;;;38.50;7.47;;;25.30;62.80;;;;;;5050615;28;20033;-73
2022/02/06 02:13:01;;;;;;;24.98;6.00;;;25.30;63.20;;;;;;5051436;28;20033;-73
2022/02/06 02:19:27;;;;;;;10.63;5.72;;;25.30;63.20;;;;;;5032747;28;20052;-73
2022/02/06 02:21:45;;;;;;;11.23;5.70;;;25.30;63.10;;;;;;5045212;28;20045;-73
2022/02/06 02:26:52;;;;;;;12.80;5.78;;;25.30;63.00;;;;;;5050110;28;20060;-73
2022/02/06 02:48:02;;;;;;;12.63;5.68;;;25.20;62.90;;;;;;5051098;28;20025;-73
2022/02/06 02:50:32;;;;;;;11.05;5.40;;;25.20;63.00;;;;;;5049552;28;20036;-73
2022/02/06 03:01:12;;;;;;;22.13;6.07;;;25.20;63.50;;;;;;5050376;28;20365;-73
2022/02/06 03:03:40;;;;;;;19.30;6.75;;;25.20;63.90;;;;;;5049044;28;20106;-73
2022/02/06 03:06:08;;;;;;;31.60;7.93;;;25.10;63.70;;;;;;5050264;28;20017;-73
2022/02/06 03:08:37;;;;;;;33.35;7.20;;;25.10;63.60;;;;;;5049788;28;20021;-73
2022/02/06 03:11:08;;;;;;;40.90;7.50;;;25.10;63.70;;;;;;5047656;28;20025;-73
2022/02/06 03:13:52;;;;;;;28.48;7.10;;;25.00;64.20;;;;;;5049496;28;20017;-73
2022/02/06 03:16:23;;;;;;;25.20;7.40;;;25.00;64.40;;;;;;5046488;28;20478;-73
2022/02/06 03:21:46;;;;;;;26.55;6.18;;;25.00;64.40;;;;;;5035588;28;20476;-73
2022/02/06 03:24:28;;;;;;;19.23;6.80;;;25.00;64.20;;;;;;5044568;28;20025;-73
2022/02/06 03:26:56;;;;;;;16.73;5.80;;;25.00;64.10;;;;;;5047876;28;20468;-73
2022/02/06 03:29:24;;;;;;;17.40;5.32;;;24.90;63.70;;;;;;5049080;28;20154;-73
2022/02/06 03:31:51;;;;;;;18.80;5.35;;;24.90;63.60;;;;;;5049668;28;20476;-72
2022/02/06 03:34:18;;;;;;;12.95;6.18;;;24.90;63.40;;;;;;5049715;28;20029;-73
2022/02/06 03:36:45;;;;;;;21.38;6.78;;;24.90;63.40;;;;;;5049264;28;20395;-72
2022/02/06 03:39:12;;;;;;;46.75;9.40;;;24.90;63.50;;;;;;5049966;28;20088;-72
2022/02/06 03:44:27;;;;;;;34.05;15.43;;;24.80;63.80;;;;;;5049868;28;20467;-74
2022/02/06 03:47:03;;;;;;;26.00;11.93;;;24.80;63.70;;;;;;5045654;28;20029;-75
2022/02/06 03:49:42;;;;;;;23.52;8.85;;;24.80;63.60;;;;;;5048555;28;20036;-74
2022/02/06 03:52:09;;;;;;;26.80;7.45;;;24.70;63.50;;;;;;5045448;28;20021;-74
2022/02/06 03:54:35;;;;;;;22.27;7.32;;;24.70;63.60;;;;;;5048861;28;20079;-73
2022/02/06 03:57:02;;;;;;;20.98;8.48;;;24.70;63.70;;;;;;5049921;28;20078;-73
2022/02/06 03:59:30;;;;;;;15.27;6.35;;;24.70;63.80;;;;;;5048253;28;20029;-73
2022/02/06 04:01:57;;;;;;;11.05;5.35;;;24.70;63.70;;;;;;5049281;28;20498;-74
2022/02/06 04:04:24;;;;;;;14.10;5.72;;;24.60;63.70;;;;;;5043585;28;20495;-73
2022/02/06 04:06:51;;;;;;;18.05;6.07;;;24.60;63.80;;;;;;5046922;28;20025;-75
2022/02/06 04:09:22;;;;;;;29.00;6.75;;;24.60;64.60;;;;;;5043930;28;20108;-73
2022/02/06 04:11:52;;;;;;;44.75;10.93;;;24.40;64.20;;;;;;5048157;28;20029;-73
2022/02/06 04:14:26;;;;;;;79.75;36.38;;;24.30;64.90;;;;;;5049609;28;20527;-76
2022/02/06 04:16:56;;;;;;;53.47;15.05;;;24.30;65.20;;;;;;5047812;28;20021;-73
2022/02/06 04:19:25;;;;;;;54.53;11.35;;;24.30;65.30;;;;;;5049744;28;20131;-71
2022/02/06 04:21:56;;;;;;;31.40;8.43;;;24.30;65.50;;;;;;5049111;28;20028;-72
2022/02/06 04:24:27;;;;;;;24.15;7.47;;;24.30;65.80;;;;;;5047022;28;20025;-72
2022/02/06 04:26:54;;;;;;;18.95;7.55;;;24.30;66.00;;;;;;5048291;28;20052;-72
2022/02/06 04:29:20;;;;;;;15.70;6.07;;;24.30;66.00;;;;;;5047800;28;20041;-73
2022/02/06 04:31:48;;;;;;;19.83;6.35;;;24.30;65.80;;;;;;5049431;28;20033;-72
2022/02/06 04:34:21;;;;;;;11.20;5.80;;;24.40;65.60;;;;;;5047988;28;20032;-73
2022/02/06 04:36:57;;;;;;;14.70;5.80;;;24.40;65.40;;;;;;5045442;28;20518;-73
2022/02/06 04:53:34;;;;;;;21.20;9.07;;;24.40;65.00;;;;;;5045402;28;20292;-72
2022/02/06 05:15:39;;;;;;;11.02;5.60;;;24.40;66.00;;;;;;5052498;28;20068;-73
2022/02/06 05:25:43;;;;;;;16.98;7.13;;;24.40;66.00;;;;;;5050357;28;20091;-71
2022/02/06 05:28:25;;;;;;;10.63;5.35;;;24.30;65.80;;;;;;5050291;28;20055;-71
2022/02/06 05:31:04;;;;;;;27.23;6.95;;;24.40;65.70;;;;;;5050937;28;20032;-71
2022/02/06 05:33:31;;;;;;;16.58;5.68;;;24.40;65.90;;;;;;5048936;28;20021;-71
2022/02/06 05:35:58;;;;;;;36.95;7.25;;;24.40;66.00;;;;;;5051024;28;20028;-71
2022/02/06 05:38:27;;;;;;;40.30;8.45;;;24.40;66.10;;;;;;5046422;28;20499;-71
2022/02/06 05:40:53;;;;;;;31.88;7.90;;;24.40;66.50;;;;;;5048624;28;20048;-72
2022/02/06 05:43:20;;;;;;;35.85;9.32;;;24.40;66.90;;;;;;5046267;28;20036;-71
2022/02/06 05:45:46;;;;;;;43.17;9.48;;;24.50;66.70;;;;;;5048471;28;20498;-74
2022/02/06 05:48:13;;;;;;;34.75;9.55;;;24.50;66.60;;;;;;5048295;28;20029;-79
2022/02/06 05:50:42;;;;;;;52.53;10.13;;;24.50;66.50;;;;;;5047162;28;20064;-76
2022/02/06 05:53:15;;;;;;;30.38;9.57;;;24.50;66.40;;;;;;5047432;28;20021;-77
2022/02/06 05:55:44;;;;;;;37.78;9.80;;;24.60;66.30;;;;;;5047268;28;20021;-75
2022/02/06 05:58:11;;;;;;;29.58;9.20;;;24.60;66.20;;;;;;5049402;28;20027;-75
2022/02/06 06:00:37;;;;;;;36.03;13.35;;;24.60;66.10;;;;;;5047104;28;20464;-75
2022/02/06 06:03:06;;;;;;;48.22;15.48;;;24.60;66.00;;;;;;5047687;28;20028;-73
2022/02/06 06:05:33;;;;;;;39.65;13.00;;;24.60;66.30;;;;;;5045945;28;20025;-73
2022/02/06 06:07:59;;;;;;;24.27;10.82;;;24.70;66.80;;;;;;5050023;28;20116;-74
2022/02/06 06:10:26;;;;;;;56.15;12.90;;;24.70;67.00;;;;;;5048151;28;20045;-73
2022/02/06 06:12:52;;;;;;;39.22;11.68;;;24.70;67.30;;;;;;5048001;28;20056;-75
2022/02/06 06:15:19;;;;;;;38.47;9.50;;;24.80;67.30;;;;;;5048199;28;20024;-75
2022/02/06 06:17:46;;;;;;;58.85;29.60;;;24.80;67.00;;;;;;5046605;28;20832;-75
2022/02/06 06:20:16;;;;;;;78.68;51.00;;;24.90;67.90;;;;;;5049061;28;20045;-76
2022/02/06 06:22:43;;;;;;;53.67;30.58;;;25.00;68.20;;;;;;5046562;28;20041;-79
2022/02/06 06:25:11;;;;;;;44.58;24.67;;;25.00;67.90;;;;;;5046699;28;20491;-76
2022/02/06 06:27:38;;;;;;;36.17;20.63;;;25.00;67.90;;;;;;5044993;28;20486;-76
2022/02/06 06:30:05;;;;;;;34.22;14.23;;;25.10;67.40;;;;;;5044501;28;20036;-77
2022/02/06 06:32:32;;;;;;;17.30;10.90;;;25.20;66.60;;;;;;5044895;28;20029;-77
2022/02/06 06:35:00;;;;;;;20.30;13.38;;;25.30;66.30;;;;;;5045340;28;20025;-74
2022/02/06 06:37:26;;;;;;;22.85;10.15;;;25.30;65.90;;;;;;5045142;28;20116;-75
2022/02/06 06:39:53;;;;;;;15.88;7.93;;;25.40;66.00;;;;;;5043241;28;20021;-73
2022/02/06 06:42:19;;;;;;;15.32;5.57;;;25.40;65.80;;;;;;5044559;28;20025;-74
2022/02/06 06:44:46;;;;;;;13.32;5.53;;;25.50;65.90;;;;;;5045029;28;20063;-78
2022/02/06 06:47:12;;;;;;;7.70;4.07;;;25.60;65.10;;;;;;5044948;28;20025;-73
2022/02/06 06:49:39;;;;;;;10.52;3.55;;;25.60;64.60;;;;;;5048769;28;20033;-71
2022/02/06 06:52:07;;;;;;;8.82;3.10;;;25.70;64.30;;;;;;5047612;28;20033;-71
2022/02/06 06:54:42;;;;;;;14.25;3.60;;;25.70;63.80;;;;;;5048004;28;20120;-71
2022/02/06 06:57:19;;;;;;;18.08;3.53;;;25.80;63.40;;;;;;5047651;28;20468;-72
2022/02/06 07:04:54;;;;;;;7.75;2.38;;;26.00;63.00;;;;;;5045340;28;20033;-71
2022/02/06 07:07:21;;;;;;;10.20;2.65;;;26.00;62.60;;;;;;5046985;28;20029;-71
2022/02/06 07:09:47;;;;;;;8.30;2.63;;;26.10;61.90;;;;;;5044241;28;20471;-71
2022/02/06 07:12:14;;;;;;;11.35;3.08;;;26.20;61.10;;;;;;5043644;28;20054;-72
2022/02/06 07:14:41;;;;;;;3.85;2.13;;;26.20;60.50;;;;;;5045432;28;20029;-71
2022/02/06 07:17:08;;;;;;;8.32;2.83;;;26.30;60.20;;;;;;5047335;28;20569;-73
2022/02/06 07:19:35;;;;;;;6.82;2.40;;;26.40;59.80;;;;;;5042762;28;20416;-72
2022/02/06 07:22:02;;;;;;;6.75;2.65;;;26.40;59.40;;;;;;5045050;28;20384;-71
2022/02/06 07:24:29;;;;;;;7.18;2.92;;;26.50;59.10;;;;;;5045735;28;20033;-71
2022/02/06 07:27:00;;;;;;;7.03;4.10;;;26.50;58.20;;;;;;5044843;28;20021;-72
2022/02/06 07:29:30;;;;;;;14.55;5.57;;;26.50;57.80;;;;;;5045624;28;20037;-71
2022/02/06 07:32:00;;;;;;;20.75;7.78;;;26.60;58.40;;;;;;5042774;28;20542;-72
2022/02/06 07:34:26;;;;;;;35.22;9.20;;;26.60;58.90;;;;;;5045939;28;20629;-72
2022/02/06 07:36:53;;;;;;;29.20;8.18;;;26.50;59.00;;;;;;5044200;28;20029;-72
2022/02/06 07:39:20;;;;;;;24.70;9.38;;;26.40;58.90;;;;;;5045815;28;20064;-71
2022/02/06 07:41:46;;;;;;;73.70;13.93;;;26.40;59.30;;;;;;5044654;28;20052;-72
2022/02/06 07:44:13;;;;;;;34.45;9.07;;;26.40;59.60;;;;;;5044655;28;20024;-71
2022/02/06 07:46:48;;;;;;;18.58;7.05;;;26.30;59.70;;;;;;5041844;28;20052;-71
2022/02/06 07:49:15;;;;;;;15.05;6.10;;;26.30;59.40;;;;;;5043652;28;20029;-71
2022/02/06 07:51:43;;;;;;;17.63;5.90;;;26.30;59.50;;;;;;5048469;28;20013;-71
2022/02/06 07:54:10;;;;;;;13.35;6.63;;;26.30;59.70;;;;;;5047016;28;20028;-72
2022/02/06 07:56:36;;;;;;;18.45;7.47;;;26.40;59.50;;;;;;5045462;28;20487;-71
2022/02/06 07:59:03;;;;;;;17.52;7.82;;;26.40;59.40;;;;;;5047411;28;20483;-71
2022/02/06 08:01:29;;;;;;;18.80;7.97;;;26.40;59.50;;;;;;5048562;28;20062;-71
2022/02/06 08:03:56;;;;;;;20.58;7.20;;;26.40;59.30;;;;;;5048153;28;20048;-71
2022/02/06 08:06:22;;;;;;;19.80;7.47;;;26.40;59.20;;;;;;5047973;28;20061;-71
2022/02/06 08:08:49;;;;;;;28.52;9.02;;;26.40;59.20;;;;;;5048887;28;20125;-71
2022/02/06 08:11:16;;;;;;;22.17;8.45;;;26.40;59.20;;;;;;5047287;28;20043;-70
2022/02/06 08:13:50;;;;;;;18.83;8.75;;;26.50;59.00;;;;;;5048411;28;20032;-71
2022/02/06 08:16:17;;;;;;;24.67;8.87;;;26.50;58.80;;;;;;5047677;28;20025;-71
2022/02/06 08:18:44;;;;;;;21.10;9.07;;;26.50;58.80;;;;;;5048362;28;21041;-70
2022/02/06 08:21:11;;;;;;;21.00;9.05;;;26.50;58.70;;;;;;5047733;28;20044;-71
2022/02/06 08:23:55;;;;;;;22.27;9.00;;;26.50;58.70;;;;;;5047731;28;20016;-71
2022/02/06 08:26:25;;;;;;;19.65;8.80;;;26.50;58.90;;;;;;5047091;28;20075;-71
2022/02/06 08:28:57;;;;;;;27.50;8.63;;;26.50;59.00;;;;;;5047765;28;20398;-71
2022/02/06 08:31:23;;;;;;;23.67;9.48;;;26.50;59.20;;;;;;5051798;28;20025;-71
2022/02/06 08:33:58;;;;;;;22.88;9.10;;;26.50;59.00;;;;;;5052559;28;20036;-71
2022/02/06 08:36:24;;;;;;;17.48;8.25;;;26.40;58.80;;;;;;5051716;28;20034;-71
2022/02/06 08:38:59;;;;;;;16.48;7.57;;;26.40;58.70;;;;;;5053349;28;20021;-71
2022/02/06 08:41:25;;;;;;;23.52;8.45;;;26.40;58.70;;;;;;5051279;28;20057;-70
2022/02/06 08:43:52;;;;;;;28.63;7.05;;;26.40;58.70;;;;;;5053280;28;20033;-70
2022/02/06 08:46:18;;;;;;;22.00;7.53;;;26.40;58.90;;;;;;5049951;28;20365;-71
2022/02/06 08:48:45;;;;;;;17.38;7.30;;;26.40;58.80;;;;;;5053114;28;20067;-71
2022/02/06 08:51:11;;;;;;;16.40;7.03;;;26.50;58.70;;;;;;5052321;28;20017;-70
2022/02/06 08:53:38;;;;;;;18.23;6.72;;;26.60;58.60;;;;;;5053278;28;20853;-71
2022/02/06 08:56:26;;;;;;;21.08;7.43;;;26.60;58.40;;;;;;5051596;28;20029;-71
2022/02/06 08:58:52;;;;;;;19.50;8.60;;;26.70;58.00;;;;;;5047892;28;20035;-71
2022/02/06 09:01:19;;;;;;;19.27;7.05;;;26.70;57.50;;;;;;5051099;28;20431;-70
2022/02/06 09:03:48;;;;;;;17.65;8.70;;;26.80;57.50;;;;;;5051851;28;20830;-70
2022/02/06 09:06:15;;;;;;;23.58;8.18;;;26.80;57.50;;;;;;5052201;28;20024;-71
2022/02/06 09:08:42;;;;;;;22.15;8.13;;;26.80;57.30;;;;;;5050296;28;20021;-70
2022/02/06 09:11:09;;;;;;;27.92;8.48;;;26.80;57.40;;;;;;5051835;28;20028;-70
2022/02/06 09:13:35;;;;;;;18.75;6.85;;;26.90;57.60;;;;;;5050884;28;20172;-71
2022/02/06 09:16:02;;;;;;;20.13;8.43;;;26.90;57.40;;;;;;5052129;28;20075;-70
2022/02/06 09:18:32;;;;;;;15.63;7.97;;;26.90;57.50;;;;;;5052604;28;20025;-69
2022/02/06 09:20:58;;;;;;;15.10;8.25;;;26.90;57.50;;;;;;5051773;28;20111;-70
2022/02/06 09:23:25;;;;;;;19.92;8.30;;;26.90;57.30;;;;;;5049952;28;20025;-70
2022/02/06 09:25:51;;;;;;;38.45;11.48;;;26.90;57.20;;;;;;5051633;28;20028;-70
2022/02/06 09:28:18;;;;;;;35.92;9.25;;;26.90;57.40;;;;;;5052092;28;20574;-70
2022/02/06 09:30:44;;;;;;;25.50;8.93;;;26.80;57.30;;;;;;5052450;28;20041;-70
2022/02/06 09:35:38;;;;;;;21.77;9.82;;;26.70;57.40;;;;;;5052481;28;20021;-70
2022/02/06 09:38:05;;;;;;;28.20;11.30;;;26.70;57.60;;;;;;5047509;28;20079;-70
2022/02/06 09:40:37;;;;;;;27.30;9.13;;;26.70;57.80;;;;;;5051182;28;20032;-70
2022/02/06 09:43:05;;;;;;;25.38;9.23;;;26.70;57.70;;;;;;5048965;28;20048;-70
2022/02/06 09:45:37;;;;;;;20.13;9.88;;;26.70;57.70;;;;;;5052344;28;20067;-70
2022/02/06 09:48:05;;;;;;;26.75;10.27;;;26.70;57.90;;;;;;5051586;28;20112;-70
2022/02/06 09:50:32;;;;;;;27.83;9.55;;;26.80;58.00;;;;;;5049057;28;20053;-70
2022/02/06 09:52:58;;;;;;;24.05;10.25;;;26.90;58.00;;;;;;5052069;28;20029;-70
2022/02/06 09:55:25;;;;;;;21.35;9.63;;;26.90;57.90;;;;;;5050884;28;20053;-70
2022/02/06 09:58:14;;;;;;;21.65;9.90;;;27.10;57.70;;;;;;5052095;28;20025;-70
2022/02/06 10:00:43;;;;;;;39.88;10.27;;;27.20;57.60;;;;;;5049730;28;20029;-70
2022/02/06 10:03:13;;;;;;;19.15;8.05;;;27.20;57.50;;;;;;5050849;28;20475;-70
2022/02/06 10:05:44;;;;;;;15.98;7.70;;;27.30;57.20;;;;;;5048994;28;20043;-70
2022/02/06 10:08:36;;;;;;;21.88;8.70;;;27.30;57.00;;;;;;5049103;28;20015;-70
2022/02/06 10:11:14;;;;;;;17.08;7.88;;;27.30;57.00;;;;;;5047285;28;20055;-70
2022/02/06 10:13:42;;;;;;;37.22;9.38;;;27.20;57.00;;;;;;5049370;28;20021;-70
2022/02/06 10:16:15;;;;;;;20.38;7.63;;;27.30;57.00;;;;;;5047625;28;20028;-70
2022/02/06 10:18:44;;;;;;;23.48;7.72;;;27.30;57.30;;;;;;5047083;28;20476;-70
2022/02/06 10:21:15;;;;;;;19.35;8.27;;;27.40;57.30;;;;;;5050222;28;20048;-70
2022/02/06 10:23:51;;;;;;;18.25;7.22;;;27.50;57.00;;;;;;5051923;28;20025;-70
2022/02/06 10:26:29;;;;;;;14.27;7.35;;;27.60;56.80;;;;;;5050590;28;20075;-70
2022/02/06 10:32:01;;;;;;;16.73;6.95;;;27.80;56.30;;;;;;5049012;28;20468;-73
2022/02/06 10:34:30;;;;;;;15.13;7.35;;;27.90;56.40;;;;;;5049231;28;20072;-70
2022/02/06 10:37:16;;;;;;;14.48;7.05;;;27.90;56.20;;;;;;5049827;28;20107;-70
2022/02/06 10:40:02;;;;;;;27.63;7.57;;;28.00;56.00;;;;;;5049921;28;20044;-70
2022/02/06 10:42:33;;;;;;;23.00;7.78;;;28.00;55.80;;;;;;5048776;28;20492;-70
2022/02/06 10:45:18;;;;;;;19.52;7.43;;;28.10;55.80;;;;;;5048126;28;20456;-71
2022/02/06 10:47:52;;;;;;;15.30;7.43;;;28.10;55.20;;;;;;5050007;28;20029;-71
2022/02/06 10:50:30;;;;;;;22.10;8.55;;;28.20;55.30;;;;;;5048147;28;20396;-70
2022/02/06 10:53:11;;;;;;;20.40;7.18;;;28.20;55.00;;;;;;5048965;28;20037;-70
2022/02/06 10:56:01;;;;;;;17.33;7.35;;;28.20;54.90;;;;;;5046278;28;20505;-71
2022/02/06 10:58:32;;;;;;;15.80;7.80;;;28.30;54.70;;;;;;5046913;28;20118;-70
2022/02/06 11:01:05;;;;;;;31.05;8.43;;;28.30;54.60;;;;;;5049611;28;20074;-71
2022/02/06 11:03:36;;;;;;;29.92;9.00;;;28.30;55.30;;;;;;5050311;28;20021;-71
2022/02/06 11:06:11;;;;;;;23.38;8.27;;;28.40;54.50;;;;;;5050684;28;20044;-70
2022/02/06 11:08:39;;;;;;;21.95;7.53;;;28.40;55.10;;;;;;5048809;28;20546;-70
2022/02/06 11:11:08;;;;;;;21.00;7.38;;;28.50;54.40;;;;;;5050494;28;20027;-71
2022/02/06 11:13:37;;;;;;;35.30;9.45;;;28.50;54.10;;;;;;5047385;28;20088;-70
2022/02/06 11:16:16;;;;;;;43.58;9.85;;;28.60;53.80;;;;;;5051083;28;20023;-70
2022/02/06 11:18:50;;;;;;;22.70;8.35;;;28.70;53.90;;;;;;5048752;28;20051;-70
2022/02/06 11:21:20;;;;;;;17.20;7.65;;;28.70;53.30;;;;;;5047753;28;20071;-70
2022/02/06 11:23:55;;;;;;;34.90;8.73;;;28.80;53.00;;;;;;5046542;28;20028;-76
2022/02/06 11:26:22;;;;;;;;;;;28.80;52.90;;;;;;5049836;28;20095;-73
2022/02/06 11:28:51;;;;;;;54.35;11.75;;;28.80;52.80;;;;;;5050082;28;19916;-73
2022/02/06 11:31:18;;;;;;;80.50;13.95;;;28.90;53.40;;;;;;5048148;28;20404;-71
2022/02/06 11:33:46;;;;;;;62.03;11.07;;;29.00;53.40;;;;;;5045476;28;20025;-72
2022/02/06 11:36:17;;;;;;;21.92;7.97;;;29.00;53.40;;;;;;5050044;28;20516;-74
2022/02/06 11:44:31;;;;;;;18.85;6.53;;;29.00;53.80;;;;;;5047837;28;20040;-73
2022/02/06 11:47:21;;;;;;;37.70;9.38;;;29.00;53.70;;;;;;5046149;28;20036;-71
2022/02/06 11:49:50;;;;;;;45.35;10.15;;;29.10;54.00;;;;;;5044666;28;20032;-71
2022/02/06 11:52:17;;;;;;;20.33;6.57;;;29.10;54.20;;;;;;5045072;28;20029;-74
2022/02/06 11:54:56;;;;;;;20.73;5.68;;;29.20;54.50;;;;;;5046448;28;20025;-73
2022/02/06 11:57:26;;;;;;;25.05;7.30;;;29.10;54.40;;;;;;5045047;28;20098;-71
2022/02/06 12:00:08;;;;;;;20.23;7.15;;;29.10;54.70;;;;;;5046536;28;20100;-73
2022/02/06 12:02:35;;;;;;;12.60;4.88;;;29.20;55.30;;;;;;5046232;28;20125;-72
2022/02/06 12:05:28;;;;;;;18.63;5.38;;;29.20;55.30;;;;;;5045612;28;20108;-71
2022/02/06 12:08:10;;;;;;;15.23;5.93;;;29.20;55.20;;;;;;5044819;28;20556;-71
2022/02/06 12:10:36;;;;;;;17.92;5.30;;;29.20;55.20;;;;;;5045557;28;20120;-73
2022/02/06 12:13:37;;;;;;;36.22;13.23;;;29.30;55.90;;;;;;5044918;28;20021;-69
2022/02/06 12:16:06;;;;;;;73.65;63.47;;;29.20;56.50;;;;;;5047116;28;20029;-69
2022/02/06 12:18:37;;;;;;;36.60;28.85;;;29.10;56.60;;;;;;5044289;28;20127;-71
2022/02/06 12:21:18;;;;;;;23.20;12.30;;;29.10;56.60;;;;;;5045630;28;20139;-71
2022/02/06 12:23:54;;;;;;;24.50;7.93;;;29.00;56.50;;;;;;5045690;28;20395;-72
2022/02/06 12:26:30;;;;;;;25.45;6.50;;;29.00;56.30;;;;;;5044198;28;20017;-73
2022/02/06 12:29:10;;;;;;;17.23;5.43;;;29.00;56.70;;;;;;5045709;28;20052;-71
2022/02/06 12:31:52;;;;;;;16.30;4.35;;;29.00;57.20;;;;;;5045009;28;20546;-73
2022/02/06 12:37:33;;;;;;;16.70;5.20;;;28.90;56.50;;;;;;5047502;28;20119;-71
2022/02/06 12:40:24;;;;;;;11.80;4.38;;;28.90;56.60;;;;;;5045107;28;20111;-71
2022/02/06 12:42:58;;;;;;;57.25;11.85;;;28.90;56.90;;;;;;5046146;28;20029;-70
2022/02/06 12:45:27;;;;;;;13.75;5.78;;;28.90;57.50;;;;;;5045362;28;20075;-71
2022/02/06 12:47:59;;;;;;;21.80;5.72;;;28.80;57.70;;;;;;5047193;28;20029;-71
2022/02/06 12:50:31;;;;;;;12.98;5.45;;;28.90;57.60;;;;;;5046951;28;20134;-70
2022/02/06 12:52:59;;;;;;;13.15;3.72;;;28.90;57.40;;;;;;5046409;28;20395;-70
2022/02/06 12:55:31;;;;;;;68.03;7.25;;;28.90;57.30;;;;;;5046964;28;20036;-71
2022/02/06 12:57:59;;;;;;;30.60;5.22;;;28.90;57.40;;;;;;5046674;28;20615;-70
2022/02/06 13:00:38;;;;;;;34.70;6.38;;;29.00;56.60;;;;;;5048021;28;20115;-72
2022/02/06 13:03:37;;;;;;;19.35;3.90;;;29.00;55.90;;;;;;5048295;28;20024;-75
2022/02/06 13:06:08;;;;;;;49.92;5.70;;;29.10;55.40;;;;;;5047893;28;20036;-71
2022/02/06 13:08:37;;;;;;;19.38;5.78;;;29.20;55.00;;;;;;5049334;28;20540;-74
2022/02/06 13:11:10;;;;;;;21.73;9.95;;;29.20;54.60;;;;;;5047105;28;20017;-71
2022/02/06 13:13:46;;;;;;;15.95;4.70;;;29.30;55.00;;;;;;5045654;28;20495;-71
2022/02/06 13:19:12;;;;;;;13.27;3.65;;;29.40;55.20;;;;;;5050713;28;20491;-70
2022/02/06 13:22:00;;;;;;;8.95;2.80;;;29.30;55.60;;;;;;5043277;28;20037;-70
2022/02/06 13:24:48;;;;;;;7.25;2.80;;;29.40;55.40;;;;;;5051862;28;20021;-70
2022/02/06 13:30:06;;;;;;;24.02;7.18;;;29.40;56.10;;;;;;5047739;28;20044;-70
2022/02/06 13:37:49;;;;;;;10.68;3.88;;;29.30;56.10;;;;;;5049666;28;20072;-70
2022/02/06 13:40:21;;;;;;;7.15;3.22;;;29.30;56.30;;;;;;5049210;28;20017;-70
2022/02/06 13:43:08;;;;;;;19.83;4.05;;;29.20;56.60;;;;;;5049552;28;20025;-70
2022/02/06 13:45:39;;;;;;;14.85;2.85;;;29.10;56.40;;;;;;5050767;28;20079;-69
2022/02/06 13:48:07;;;;;;;7.43;2.95;;;29.10;56.60;;;;;;5049659;28;20060;-69
2022/02/06 13:50:39;;;;;;;9.88;3.75;;;29.10;56.50;;;;;;5051345;28;20130;-70
2022/02/06 13:53:17;;;;;;;9.93;3.97;;;29.10;56.40;;;;;;5048884;28;20028;-69
2022/02/06 13:55:48;;;;;;;11.15;3.10;;;29.10;56.20;;;;;;5051124;28;20454;-69
2022/02/06 13:58:21;;;;;;;7.80;2.80;;;29.10;56.20;;;;;;5049858;28;20053;-70
2022/02/06 14:00:55;;;;;;;9.60;3.05;;;29.00;56.20;;;;;;5050541;28;20029;-70
2022/02/06 14:03:22;;;;;;;10.27;4.47;;;29.00;56.10;;;;;;5049260;28;20068;-69
2022/02/06 14:06:09;;;;;;;7.53;2.72;;;29.00;56.10;;;;;;5046939;28;20485;-69
2022/02/06 14:08:37;;;;;;;10.02;3.50;;;29.00;56.00;;;;;;5050295;28;20468;-69
2022/02/06 14:11:18;;;;;;;6.65;2.78;;;29.00;55.90;;;;;;5050225;28;20017;-69
2022/02/06 14:13:44;;;;;;;7.80;3.35;;;29.00;56.50;;;;;;5050474;28;20029;-69
2022/02/06 14:16:12;;;;;;;9.40;3.40;;;29.00;55.80;;;;;;5050277;28;20021;-71
2022/02/06 14:19:04;;;;;;;15.32;3.92;;;29.00;55.90;;;;;;5050101;28;20021;-72
2022/02/06 14:21:51;;;;;;;14.30;3.75;;;29.00;56.10;;;;;;5043482;28;20127;-69
2022/02/06 14:24:17;;;;;;;9.82;2.67;;;29.00;56.20;;;;;;5043064;28;20078;-71
2022/02/06 14:27:01;;;;;;;5.10;2.90;;;29.00;56.30;;;;;;5049100;28;20479;-71
2022/02/06 14:29:28;;;;;;;11.30;2.83;;;29.00;56.30;;;;;;5048572;28;20130;-69
2022/02/06 14:32:09;;;;;;;9.45;2.80;;;29.00;56.50;;;;;;5047213;28;20254;-69
2022/02/06 14:34:35;;;;;;;15.20;4.15;;;29.00;56.70;;;;;;5049374;28;20116;-70
2022/02/06 14:37:14;;;;;;;22.35;4.50;;;29.00;56.80;;;;;;5049506;28;20044;-70
2022/02/06 14:40:13;;;;;;;30.67;5.22;;;29.00;56.90;;;;;;5046677;28;20087;-70
2022/02/06 14:42:51;;;;;;;57.03;7.32;;;29.00;57.90;;;;;;5049856;28;20033;-70
2022/02/06 14:45:19;;;;;;;83.05;24.80;;;29.00;58.40;;;;;;5045952;28;20017;-70
2022/02/06 14:47:45;;;;;;;49.88;19.25;;;28.90;58.30;;;;;;5048718;28;20104;-70
2022/02/06 14:50:32;;;;;;;34.97;8.82;;;28.90;58.10;;;;;;5048871;28;20111;-71
2022/02/06 14:52:58;;;;;;;31.35;5.40;;;28.90;58.40;;;;;;5045645;28;20060;-71
2022/02/06 14:55:24;;;;;;;20.13;3.80;;;28.80;57.60;;;;;;5046232;28;20067;-71
2022/02/06 14:57:51;;;;;;;13.30;3.30;;;28.80;57.80;;;;;;5046312;28;20017;-71
2022/02/06 15:00:17;;;;;;;6.35;3.20;;;28.80;58.00;;;;;;5046969;28;20037;-70
2022/02/06 15:02:44;;;;;;;16.08;3.50;;;28.80;58.10;;;;;;5046974;28;20354;-71
2022/02/06 15:05:10;;;;;;;8.43;4.13;;;28.70;58.00;;;;;;5049428;28;20415;-70
2022/02/06 15:07:37;;;;;;;14.02;3.75;;;28.70;57.80;;;;;;5047456;28;20027;-71
2022/02/06 15:10:04;;;;;;;16.45;3.97;;;28.70;57.90;;;;;;5048723;28;20058;-70
2022/02/06 15:12:30;;;;;;;17.45;4.55;;;28.70;57.90;;;;;;5044709;28;20120;-71
2022/02/06 15:14:57;;;;;;;10.63;3.08;;;28.70;58.00;;;;;;5049439;28;20079;-70
2022/02/06 15:17:24;;;;;;;9.52;2.55;;;28.70;58.00;;;;;;5049364;28;20116;-70
2022/02/06 15:19:51;;;;;;;9.13;3.40;;;28.70;57.90;;;;;;5043735;28;20163;-70
2022/02/06 15:22:17;;;;;;;6.30;3.47;;;28.70;57.60;;;;;;5046811;28;20479;-70
2022/02/06 15:24:44;;;;;;;8.50;4.10;;;28.70;57.50;;;;;;5045075;28;20021;-70
2022/02/06 15:27:10;;;;;;;8.80;3.83;;;28.70;57.30;;;;;;5048344;28;20028;-70
2022/02/06 15:29:37;;;;;;;27.17;5.00;;;28.60;57.40;;;;;;5045279;28;20144;-71
2022/02/06 15:32:03;;;;;;;18.67;5.13;;;28.60;57.40;;;;;;5045673;28;20083;-69
2022/02/06 15:34:31;;;;;;;21.35;6.13;;;28.70;57.60;;;;;;5048359;28;20099;-70
2022/02/06 15:37:01;;;;;;;31.10;7.88;;;28.70;58.00;;;;;;5048741;28;20021;-70
2022/02/06 15:39:38;;;;;;;73.60;11.15;;;28.60;57.90;;;;;;5044312;28;20107;-70
2022/02/06 15:42:17;;;;;;;62.85;7.80;;;28.60;58.40;;;;;;5043942;28;20029;-69